Startpagina
METAR-TAF:

METAR-TAF

Vliegvelden :

Luchthaven Mitiga Internationaal

Tripoli, Libië

breedte: 32-54N, lengte: 13-17E, hoogte: 11 m

Actueel weer

Dit bericht is 1 uur en het 18 minuten geleden gemaakt, om 19:50 UTC
Wind 5 kt uit het noorden
Temperatuur 21°C
Vochtigheid 78%
Druk 1016 hPa
Zicht: 6000 m
Weinig wolken op 2500 ft
Verspreide wolken op 8000 ft

METAR: HLLM 221950Z 35005KT 6000 FEW025 SCT080 21/17 Q1016

Tijdstip: 23:08 (21:08 UTC)

Verwachting

Dit bericht is 4 uur en het 8 minuten geleden gemaakt, om 17:00 UTC
Verwachting geldig van 22 om 18 UTC tot 23 om 18 UTC
Wind 10 kt uit het noordnoordwesten
Zicht: 8000 m
Verspreide wolken op 2500 ft
Kans 40%
van 22 om 20 UTC tot 23 om 06 UTC
Zicht: 5000 m
Gebroken wolken op 1000 ft
nevel

TAF: HLLM 221700Z 2218/2318 33010KT 8000 SCT025 PROB40 2220/2306 5000 BR BKN010

Waarnemingen en weersverwachtingen van meer dan 4000 vliegvelden (METAR en TAF).

De beschikbare stations zijn de gele en rode punten op de kaart.

Ga met uw muis naar het station om de naam te zien.

Klik dan om waarnemingen en weersverwachtingen te zien.

kaart wijzigen: klik op de groene knoppen met een zwart kruis om in te zoomen, op de groene knop met een streepje om uit te zoomen of op de groene pijlen voor aangrenzende kaarten.


METAR-TAF: